sensor_id;sensor_type;location;lat;lon;timestamp;temperature;humidity
10911;DHT22;5508;49.150;11.030;2023-05-27T00:02:59;10.10;83.30
10911;DHT22;5508;49.150;11.030;2023-05-27T00:06:01;10.10;84.10
10911;DHT22;5508;49.150;11.030;2023-05-27T00:09:01;10.00;84.70
10911;DHT22;5508;49.150;11.030;2023-05-27T00:12:03;10.00;85.30
10911;DHT22;5508;49.150;11.030;2023-05-27T00:15:03;10.00;85.10
10911;DHT22;5508;49.150;11.030;2023-05-27T00:18:04;10.00;85.80
10911;DHT22;5508;49.150;11.030;2023-05-27T00:21:05;10.00;85.90
10911;DHT22;5508;49.150;11.030;2023-05-27T00:24:06;9.90;86.30
10911;DHT22;5508;49.150;11.030;2023-05-27T00:27:07;9.90;87.00
10911;DHT22;5508;49.150;11.030;2023-05-27T00:30:08;9.90;87.40
10911;DHT22;5508;49.150;11.030;2023-05-27T00:33:09;9.80;87.50
10911;DHT22;5508;49.150;11.030;2023-05-27T00:36:10;9.80;87.50
10911;DHT22;5508;49.150;11.030;2023-05-27T00:39:10;9.80;87.60
10911;DHT22;5508;49.150;11.030;2023-05-27T00:42:11;9.70;87.50
10911;DHT22;5508;49.150;11.030;2023-05-27T00:45:12;9.70;87.40
10911;DHT22;5508;49.150;11.030;2023-05-27T00:48:13;9.60;87.30
10911;DHT22;5508;49.150;11.030;2023-05-27T00:51:14;9.60;87.30
10911;DHT22;5508;49.150;11.030;2023-05-27T00:54:15;9.60;87.90
10911;DHT22;5508;49.150;11.030;2023-05-27T00:57:16;9.60;89.10
10911;DHT22;5508;49.150;11.030;2023-05-27T01:00:16;9.50;89.20
10911;DHT22;5508;49.150;11.030;2023-05-27T01:03:17;9.50;89.20
10911;DHT22;5508;49.150;11.030;2023-05-27T01:06:48;9.40;89.40
10911;DHT22;5508;49.150;11.030;2023-05-27T01:09:49;9.50;89.40
10911;DHT22;5508;49.150;11.030;2023-05-27T01:16:13;9.40;89.80
10911;DHT22;5508;49.150;11.030;2023-05-27T01:19:29;9.40;89.90
10911;DHT22;5508;49.150;11.030;2023-05-27T01:22:33;9.20;90.00
10911;DHT22;5508;49.150;11.030;2023-05-27T01:25:34;9.10;90.20
10911;DHT22;5508;49.150;11.030;2023-05-27T01:28:35;9.00;89.90
10911;DHT22;5508;49.150;11.030;2023-05-27T01:31:42;8.90;90.20
10911;DHT22;5508;49.150;11.030;2023-05-27T01:35:08;8.80;90.80
10911;DHT22;5508;49.150;11.030;2023-05-27T01:38:12;8.70;90.80
10911;DHT22;5508;49.150;11.030;2023-05-27T01:41:14;8.60;91.70
10911;DHT22;5508;49.150;11.030;2023-05-27T01:44:16;8.50;92.20
10911;DHT22;5508;49.150;11.030;2023-05-27T01:47:17;8.50;93.00
10911;DHT22;5508;49.150;11.030;2023-05-27T01:50:18;8.40;93.60
10911;DHT22;5508;49.150;11.030;2023-05-27T01:53:19;8.40;93.70
10911;DHT22;5508;49.150;11.030;2023-05-27T01:56:20;8.40;93.90
10911;DHT22;5508;49.150;11.030;2023-05-27T01:59:20;8.40;93.90
10911;DHT22;5508;49.150;11.030;2023-05-27T02:02:21;8.40;93.80
10911;DHT22;5508;49.150;11.030;2023-05-27T02:05:21;8.40;93.90
10911;DHT22;5508;49.150;11.030;2023-05-27T02:08:22;8.40;93.90
10911;DHT22;5508;49.150;11.030;2023-05-27T02:11:23;8.40;94.00
10911;DHT22;5508;49.150;11.030;2023-05-27T02:14:23;8.30;93.60
10911;DHT22;5508;49.150;11.030;2023-05-27T02:17:24;8.20;94.20
10911;DHT22;5508;49.150;11.030;2023-05-27T02:20:24;8.10;95.50
10911;DHT22;5508;49.150;11.030;2023-05-27T02:23:25;8.10;95.40
10911;DHT22;5508;49.150;11.030;2023-05-27T02:26:26;8.10;95.60
10911;DHT22;5508;49.150;11.030;2023-05-27T02:29:26;8.10;95.50
10911;DHT22;5508;49.150;11.030;2023-05-27T02:32:27;8.00;95.70
10911;DHT22;5508;49.150;11.030;2023-05-27T02:35:27;8.00;95.60
10911;DHT22;5508;49.150;11.030;2023-05-27T02:38:28;8.00;96.00
10911;DHT22;5508;49.150;11.030;2023-05-27T02:41:29;7.90;96.40
10911;DHT22;5508;49.150;11.030;2023-05-27T02:44:29;7.90;96.80
10911;DHT22;5508;49.150;11.030;2023-05-27T02:47:30;7.90;96.90
10911;DHT22;5508;49.150;11.030;2023-05-27T02:50:30;7.80;97.30
10911;DHT22;5508;49.150;11.030;2023-05-27T02:53:31;7.70;98.10
10911;DHT22;5508;49.150;11.030;2023-05-27T02:56:31;7.70;98.90
10911;DHT22;5508;49.150;11.030;2023-05-27T02:59:32;7.60;98.70
10911;DHT22;5508;49.150;11.030;2023-05-27T03:02:33;7.60;98.50
10911;DHT22;5508;49.150;11.030;2023-05-27T03:05:36;7.60;99.20
10911;DHT22;5508;49.150;11.030;2023-05-27T03:08:37;7.60;99.40
10911;DHT22;5508;49.150;11.030;2023-05-27T03:11:37;7.60;99.90
10911;DHT22;5508;49.150;11.030;2023-05-27T03:14:38;7.60;99.40
10911;DHT22;5508;49.150;11.030;2023-05-27T03:17:39;7.70;99.10
10911;DHT22;5508;49.150;11.030;2023-05-27T03:20:39;7.60;99.40
10911;DHT22;5508;49.150;11.030;2023-05-27T03:23:40;7.70;99.40
10911;DHT22;5508;49.150;11.030;2023-05-27T03:26:41;7.70;99.10
10911;DHT22;5508;49.150;11.030;2023-05-27T03:29:41;7.60;99.00
10911;DHT22;5508;49.150;11.030;2023-05-27T03:32:42;7.50;99.70
10911;DHT22;5508;49.150;11.030;2023-05-27T03:35:42;7.50;99.50
10911;DHT22;5508;49.150;11.030;2023-05-27T03:38:43;7.50;99.60
10911;DHT22;5508;49.150;11.030;2023-05-27T03:41:45;7.60;99.90
10911;DHT22;5508;49.150;11.030;2023-05-27T03:44:45;7.60;99.50
10911;DHT22;5508;49.150;11.030;2023-05-27T03:47:46;7.70;99.60
10911;DHT22;5508;49.150;11.030;2023-05-27T03:50:47;7.80;99.70
10911;DHT22;5508;49.150;11.030;2023-05-27T03:53:47;7.90;99.50
10911;DHT22;5508;49.150;11.030;2023-05-27T03:56:48;8.10;95.10
10911;DHT22;5508;49.150;11.030;2023-05-27T03:59:49;8.10;95.60
10911;DHT22;5508;49.150;11.030;2023-05-27T04:02:49;8.20;96.10
10911;DHT22;5508;49.150;11.030;2023-05-27T04:05:50;8.20;95.90
10911;DHT22;5508;49.150;11.030;2023-05-27T04:08:50;8.30;94.40
10911;DHT22;5508;49.150;11.030;2023-05-27T04:11:51;8.30;93.80
10911;DHT22;5508;49.150;11.030;2023-05-27T04:14:52;8.40;93.40
10911;DHT22;5508;49.150;11.030;2023-05-27T04:17:52;8.60;92.90
10911;DHT22;5508;49.150;11.030;2023-05-27T04:20:53;8.70;93.30
10911;DHT22;5508;49.150;11.030;2023-05-27T04:23:53;8.90;91.50
10911;DHT22;5508;49.150;11.030;2023-05-27T04:26:54;9.00;92.70
10911;DHT22;5508;49.150;11.030;2023-05-27T04:29:55;9.10;92.70
10911;DHT22;5508;49.150;11.030;2023-05-27T04:32:55;9.20;93.30
10911;DHT22;5508;49.150;11.030;2023-05-27T04:35:56;9.30;90.60
10911;DHT22;5508;49.150;11.030;2023-05-27T04:38:57;9.40;93.10
10911;DHT22;5508;49.150;11.030;2023-05-27T04:41:57;9.40;93.00
10911;DHT22;5508;49.150;11.030;2023-05-27T04:44:58;9.40;92.80
10911;DHT22;5508;49.150;11.030;2023-05-27T04:48:00;9.50;91.00
10911;DHT22;5508;49.150;11.030;2023-05-27T04:51:01;9.60;90.50
10911;DHT22;5508;49.150;11.030;2023-05-27T04:54:02;9.80;90.70
10911;DHT22;5508;49.150;11.030;2023-05-27T04:57:02;10.00;85.90
10911;DHT22;5508;49.150;11.030;2023-05-27T05:00:04;10.10;85.10
10911;DHT22;5508;49.150;11.030;2023-05-27T05:03:05;10.20;84.70
10911;DHT22;5508;49.150;11.030;2023-05-27T05:06:07;10.40;83.90
10911;DHT22;5508;49.150;11.030;2023-05-27T05:09:08;10.50;82.30
10911;DHT22;5508;49.150;11.030;2023-05-27T05:12:09;10.70;82.80
10911;DHT22;5508;49.150;11.030;2023-05-27T05:15:10;10.80;81.60
10911;DHT22;5508;49.150;11.030;2023-05-27T05:18:11;10.90;79.60
10911;DHT22;5508;49.150;11.030;2023-05-27T05:21:11;11.10;80.30
10911;DHT22;5508;49.150;11.030;2023-05-27T05:24:12;11.20;82.10
10911;DHT22;5508;49.150;11.030;2023-05-27T05:27:13;11.30;81.30
10911;DHT22;5508;49.150;11.030;2023-05-27T05:30:13;11.50;79.20
10911;DHT22;5508;49.150;11.030;2023-05-27T05:33:14;11.70;77.60
10911;DHT22;5508;49.150;11.030;2023-05-27T05:36:15;11.80;76.40
10911;DHT22;5508;49.150;11.030;2023-05-27T05:39:16;11.90;76.80
10911;DHT22;5508;49.150;11.030;2023-05-27T05:42:16;12.20;75.00
10911;DHT22;5508;49.150;11.030;2023-05-27T05:45:17;12.10;77.00
10911;DHT22;5508;49.150;11.030;2023-05-27T05:48:18;12.40;72.40
10911;DHT22;5508;49.150;11.030;2023-05-27T05:51:19;12.60;71.40
10911;DHT22;5508;49.150;11.030;2023-05-27T05:54:20;12.80;69.20
10911;DHT22;5508;49.150;11.030;2023-05-27T05:57:20;13.00;67.80
10911;DHT22;5508;49.150;11.030;2023-05-27T06:00:21;13.20;66.10
10911;DHT22;5508;49.150;11.030;2023-05-27T06:03:22;13.30;66.00
10911;DHT22;5508;49.150;11.030;2023-05-27T06:06:23;13.40;63.60
10911;DHT22;5508;49.150;11.030;2023-05-27T06:09:24;13.60;62.60
10911;DHT22;5508;49.150;11.030;2023-05-27T06:12:25;13.80;61.20
10911;DHT22;5508;49.150;11.030;2023-05-27T06:15:26;14.00;61.40
10911;DHT22;5508;49.150;11.030;2023-05-27T06:18:27;14.30;60.60
10911;DHT22;5508;49.150;11.030;2023-05-27T06:21:28;14.40;58.80
10911;DHT22;5508;49.150;11.030;2023-05-27T06:24:31;14.40;56.30
10911;DHT22;5508;49.150;11.030;2023-05-27T06:27:31;14.40;58.20
10911;DHT22;5508;49.150;11.030;2023-05-27T06:30:32;14.70;57.30
10911;DHT22;5508;49.150;11.030;2023-05-27T06:33:33;14.90;57.10
10911;DHT22;5508;49.150;11.030;2023-05-27T06:36:33;14.90;55.60
10911;DHT22;5508;49.150;11.030;2023-05-27T06:39:34;15.00;53.80
10911;DHT22;5508;49.150;11.030;2023-05-27T06:42:34;14.80;53.80
10911;DHT22;5508;49.150;11.030;2023-05-27T06:45:35;15.00;55.00
10911;DHT22;5508;49.150;11.030;2023-05-27T06:48:36;15.00;53.50
10911;DHT22;5508;49.150;11.030;2023-05-27T06:51:36;15.30;53.20
10911;DHT22;5508;49.150;11.030;2023-05-27T06:54:37;15.40;52.30
10911;DHT22;5508;49.150;11.030;2023-05-27T06:57:38;15.60;50.80
10911;DHT22;5508;49.150;11.030;2023-05-27T07:00:38;15.70;51.80
10911;DHT22;5508;49.150;11.030;2023-05-27T07:03:40;15.70;49.40
10911;DHT22;5508;49.150;11.030;2023-05-27T07:06:42;15.70;48.60
10911;DHT22;5508;49.150;11.030;2023-05-27T07:09:43;15.90;50.20
10911;DHT22;5508;49.150;11.030;2023-05-27T07:12:43;16.00;47.40
10911;DHT22;5508;49.150;11.030;2023-05-27T07:15:44;16.00;47.30
10911;DHT22;5508;49.150;11.030;2023-05-27T07:18:45;16.10;47.60
10911;DHT22;5508;49.150;11.030;2023-05-27T07:21:45;16.30;46.60
10911;DHT22;5508;49.150;11.030;2023-05-27T07:24:46;16.30;47.50
10911;DHT22;5508;49.150;11.030;2023-05-27T07:27:47;16.40;46.80
10911;DHT22;5508;49.150;11.030;2023-05-27T07:30:47;16.70;47.90
10911;DHT22;5508;49.150;11.030;2023-05-27T07:33:48;16.80;47.20
10911;DHT22;5508;49.150;11.030;2023-05-27T07:36:48;17.10;46.30
10911;DHT22;5508;49.150;11.030;2023-05-27T07:39:49;17.10;45.10
10911;DHT22;5508;49.150;11.030;2023-05-27T07:42:51;17.10;45.10
10911;DHT22;5508;49.150;11.030;2023-05-27T07:45:52;17.30;46.30
10911;DHT22;5508;49.150;11.030;2023-05-27T07:48:52;17.30;46.30
10911;DHT22;5508;49.150;11.030;2023-05-27T07:51:53;17.40;47.00
10911;DHT22;5508;49.150;11.030;2023-05-27T07:54:55;17.60;48.90
10911;DHT22;5508;49.150;11.030;2023-05-27T07:57:56;18.10;43.30
10911;DHT22;5508;49.150;11.030;2023-05-27T08:00:57;17.80;44.30
10911;DHT22;5508;49.150;11.030;2023-05-27T08:03:58;17.70;45.30
10911;DHT22;5508;49.150;11.030;2023-05-27T08:06:59;17.70;46.30
10911;DHT22;5508;49.150;11.030;2023-05-27T08:10:00;17.80;43.50
10911;DHT22;5508;49.150;11.030;2023-05-27T08:13:01;18.00;44.30
10911;DHT22;5508;49.150;11.030;2023-05-27T08:16:01;17.90;45.50
10911;DHT22;5508;49.150;11.030;2023-05-27T08:19:02;18.10;44.00
10911;DHT22;5508;49.150;11.030;2023-05-27T08:22:03;18.40;43.20
10911;DHT22;5508;49.150;11.030;2023-05-27T08:25:09;18.60;45.50
10911;DHT22;5508;49.150;11.030;2023-05-27T08:28:10;19.00;46.70
10911;DHT22;5508;49.150;11.030;2023-05-27T08:31:11;19.40;41.10
10911;DHT22;5508;49.150;11.030;2023-05-27T08:34:12;19.30;41.00
10911;DHT22;5508;49.150;11.030;2023-05-27T08:37:12;19.60;40.60
10911;DHT22;5508;49.150;11.030;2023-05-27T08:40:14;19.30;41.20
10911;DHT22;5508;49.150;11.030;2023-05-27T08:43:15;19.20;41.60
10911;DHT22;5508;49.150;11.030;2023-05-27T08:46:16;19.10;40.90
10911;DHT22;5508;49.150;11.030;2023-05-27T08:49:18;19.10;40.70
10911;DHT22;5508;49.150;11.030;2023-05-27T08:52:19;19.30;41.10
10911;DHT22;5508;49.150;11.030;2023-05-27T08:55:21;19.10;43.20
10911;DHT22;5508;49.150;11.030;2023-05-27T08:58:22;19.30;40.70
10911;DHT22;5508;49.150;11.030;2023-05-27T09:01:23;19.40;39.50
10911;DHT22;5508;49.150;11.030;2023-05-27T09:04:25;19.20;41.80
10911;DHT22;5508;49.150;11.030;2023-05-27T09:07:26;19.50;38.40
10911;DHT22;5508;49.150;11.030;2023-05-27T09:10:40;19.60;40.80
10911;DHT22;5508;49.150;11.030;2023-05-27T09:13:42;19.50;40.00
10911;DHT22;5508;49.150;11.030;2023-05-27T09:16:43;19.40;41.00
10911;DHT22;5508;49.150;11.030;2023-05-27T09:19:46;19.70;43.00
10911;DHT22;5508;49.150;11.030;2023-05-27T09:22:47;19.60;38.90
10911;DHT22;5508;49.150;11.030;2023-05-27T09:25:48;19.20;40.20
10911;DHT22;5508;49.150;11.030;2023-05-27T09:28:50;19.50;40.00
10911;DHT22;5508;49.150;11.030;2023-05-27T09:31:53;19.60;40.00
10911;DHT22;5508;49.150;11.030;2023-05-27T09:34:54;19.50;40.50
10911;DHT22;5508;49.150;11.030;2023-05-27T09:38:05;19.70;40.70
10911;DHT22;5508;49.150;11.030;2023-05-27T09:41:06;20.00;41.20
10911;DHT22;5508;49.150;11.030;2023-05-27T09:44:07;20.00;39.30
10911;DHT22;5508;49.150;11.030;2023-05-27T09:47:08;20.20;39.00
10911;DHT22;5508;49.150;11.030;2023-05-27T09:50:12;19.50;38.60
10911;DHT22;5508;49.150;11.030;2023-05-27T09:53:15;19.50;39.00
10911;DHT22;5508;49.150;11.030;2023-05-27T09:56:15;19.40;39.50
10911;DHT22;5508;49.150;11.030;2023-05-27T09:59:16;19.40;39.90
10911;DHT22;5508;49.150;11.030;2023-05-27T10:02:18;19.80;40.60
10911;DHT22;5508;49.150;11.030;2023-05-27T10:05:20;20.00;38.50
10911;DHT22;5508;49.150;11.030;2023-05-27T10:08:22;20.10;39.70
10911;DHT22;5508;49.150;11.030;2023-05-27T10:11:23;20.30;37.90
10911;DHT22;5508;49.150;11.030;2023-05-27T10:14:23;20.20;37.00
10911;DHT22;5508;49.150;11.030;2023-05-27T10:17:24;20.00;37.80
10911;DHT22;5508;49.150;11.030;2023-05-27T10:23:31;20.00;38.10
10911;DHT22;5508;49.150;11.030;2023-05-27T10:26:45;20.30;38.80
10911;DHT22;5508;49.150;11.030;2023-05-27T10:29:56;20.30;38.70
10911;DHT22;5508;49.150;11.030;2023-05-27T10:32:57;20.50;37.00
10911;DHT22;5508;49.150;11.030;2023-05-27T10:36:09;20.50;38.10
10911;DHT22;5508;49.150;11.030;2023-05-27T10:39:17;20.40;38.30
10911;DHT22;5508;49.150;11.030;2023-05-27T10:42:21;20.60;36.50
10911;DHT22;5508;49.150;11.030;2023-05-27T10:45:31;20.40;36.80
10911;DHT22;5508;49.150;11.030;2023-05-27T10:48:33;20.60;40.50
10911;DHT22;5508;49.150;11.030;2023-05-27T10:51:34;20.70;37.90
10911;DHT22;5508;49.150;11.030;2023-05-27T10:54:35;21.00;39.00
10911;DHT22;5508;49.150;11.030;2023-05-27T10:57:36;21.10;35.30
10911;DHT22;5508;49.150;11.030;2023-05-27T11:00:37;20.80;36.50
10911;DHT22;5508;49.150;11.030;2023-05-27T11:03:44;21.10;38.10
10911;DHT22;5508;49.150;11.030;2023-05-27T11:06:58;21.10;36.90
10911;DHT22;5508;49.150;11.030;2023-05-27T11:10:00;20.90;36.50
10911;DHT22;5508;49.150;11.030;2023-05-27T11:13:00;20.70;38.10
10911;DHT22;5508;49.150;11.030;2023-05-27T11:16:03;20.80;39.40
10911;DHT22;5508;49.150;11.030;2023-05-27T11:19:04;20.90;35.30
10911;DHT22;5508;49.150;11.030;2023-05-27T11:22:09;21.00;36.40
10911;DHT22;5508;49.150;11.030;2023-05-27T11:25:10;21.20;38.60
10911;DHT22;5508;49.150;11.030;2023-05-27T11:28:15;21.60;36.20
10911;DHT22;5508;49.150;11.030;2023-05-27T11:31:18;21.60;37.20
10911;DHT22;5508;49.150;11.030;2023-05-27T11:34:22;21.10;32.90
10911;DHT22;5508;49.150;11.030;2023-05-27T11:37:23;21.00;35.20
10911;DHT22;5508;49.150;11.030;2023-05-27T11:40:23;21.10;38.10
10911;DHT22;5508;49.150;11.030;2023-05-27T11:43:24;21.40;36.90
10911;DHT22;5508;49.150;11.030;2023-05-27T11:46:41;21.60;37.20
10911;DHT22;5508;49.150;11.030;2023-05-27T11:49:42;21.50;33.40
10911;DHT22;5508;49.150;11.030;2023-05-27T11:52:52;21.40;35.00
10911;DHT22;5508;49.150;11.030;2023-05-27T11:55:53;21.70;36.30
10911;DHT22;5508;49.150;11.030;2023-05-27T11:58:54;21.60;34.80
10911;DHT22;5508;49.150;11.030;2023-05-27T12:01:54;21.70;33.80
10911;DHT22;5508;49.150;11.030;2023-05-27T12:04:55;22.00;33.90
10911;DHT22;5508;49.150;11.030;2023-05-27T12:07:55;22.30;31.80
10911;DHT22;5508;49.150;11.030;2023-05-27T12:10:56;21.70;32.60
10911;DHT22;5508;49.150;11.030;2023-05-27T12:13:57;21.60;33.90
10911;DHT22;5508;49.150;11.030;2023-05-27T12:16:58;21.50;33.30
10911;DHT22;5508;49.150;11.030;2023-05-27T12:19:58;21.30;34.60
10911;DHT22;5508;49.150;11.030;2023-05-27T12:22:59;21.40;34.40
10911;DHT22;5508;49.150;11.030;2023-05-27T12:26:00;21.40;33.50
10911;DHT22;5508;49.150;11.030;2023-05-27T12:29:01;21.60;33.60
10911;DHT22;5508;49.150;11.030;2023-05-27T12:32:01;21.60;34.40
10911;DHT22;5508;49.150;11.030;2023-05-27T12:35:02;21.80;36.30
10911;DHT22;5508;49.150;11.030;2023-05-27T12:38:02;21.90;35.60
10911;DHT22;5508;49.150;11.030;2023-05-27T12:41:03;22.10;35.00
10911;DHT22;5508;49.150;11.030;2023-05-27T12:44:04;22.00;30.10
10911;DHT22;5508;49.150;11.030;2023-05-27T12:47:04;22.10;31.40
10911;DHT22;5508;49.150;11.030;2023-05-27T12:50:06;22.10;34.60
10911;DHT22;5508;49.150;11.030;2023-05-27T12:53:08;22.20;30.90
10911;DHT22;5508;49.150;11.030;2023-05-27T12:56:09;22.20;32.80
10911;DHT22;5508;49.150;11.030;2023-05-27T12:59:10;22.40;30.40
10911;DHT22;5508;49.150;11.030;2023-05-27T13:02:10;22.10;30.60
10911;DHT22;5508;49.150;11.030;2023-05-27T13:05:11;21.90;30.70
10911;DHT22;5508;49.150;11.030;2023-05-27T13:08:12;21.80;31.80
10911;DHT22;5508;49.150;11.030;2023-05-27T13:11:12;21.90;31.40
10911;DHT22;5508;49.150;11.030;2023-05-27T13:14:13;21.70;30.20
10911;DHT22;5508;49.150;11.030;2023-05-27T13:17:13;21.70;31.00
10911;DHT22;5508;49.150;11.030;2023-05-27T13:20:14;21.70;30.40
10911;DHT22;5508;49.150;11.030;2023-05-27T13:23:15;21.90;32.00
10911;DHT22;5508;49.150;11.030;2023-05-27T13:26:16;22.00;32.00
10911;DHT22;5508;49.150;11.030;2023-05-27T13:29:16;22.20;32.30
10911;DHT22;5508;49.150;11.030;2023-05-27T13:32:17;22.40;30.50
10911;DHT22;5508;49.150;11.030;2023-05-27T13:35:18;22.50;31.30
10911;DHT22;5508;49.150;11.030;2023-05-27T13:38:18;22.40;30.40
10911;DHT22;5508;49.150;11.030;2023-05-27T13:41:19;22.30;32.60
10911;DHT22;5508;49.150;11.030;2023-05-27T13:44:19;22.40;32.70
10911;DHT22;5508;49.150;11.030;2023-05-27T13:47:20;22.30;32.10
10911;DHT22;5508;49.150;11.030;2023-05-27T13:50:21;21.90;28.90
10911;DHT22;5508;49.150;11.030;2023-05-27T13:53:21;22.00;31.90
10911;DHT22;5508;49.150;11.030;2023-05-27T13:56:22;22.20;31.20
10911;DHT22;5508;49.150;11.030;2023-05-27T13:59:23;22.40;34.00
10911;DHT22;5508;49.150;11.030;2023-05-27T14:02:23;22.60;31.80
10911;DHT22;5508;49.150;11.030;2023-05-27T14:05:24;22.50;30.60
10911;DHT22;5508;49.150;11.030;2023-05-27T14:08:26;22.30;31.30
10911;DHT22;5508;49.150;11.030;2023-05-27T14:11:27;22.60;31.00
10911;DHT22;5508;49.150;11.030;2023-05-27T14:14:27;22.70;28.70
10911;DHT22;5508;49.150;11.030;2023-05-27T14:17:28;22.80;30.00
10911;DHT22;5508;49.150;11.030;2023-05-27T14:20:29;22.70;30.00
10911;DHT22;5508;49.150;11.030;2023-05-27T14:23:30;22.60;33.40
10911;DHT22;5508;49.150;11.030;2023-05-27T14:26:30;22.30;33.70
10911;DHT22;5508;49.150;11.030;2023-05-27T14:29:31;22.30;34.40
10911;DHT22;5508;49.150;11.030;2023-05-27T14:32:32;22.60;34.10
10911;DHT22;5508;49.150;11.030;2023-05-27T14:35:36;22.60;34.70
10911;DHT22;5508;49.150;11.030;2023-05-27T14:38:37;22.70;30.30
10911;DHT22;5508;49.150;11.030;2023-05-27T14:41:38;22.90;30.20
10911;DHT22;5508;49.150;11.030;2023-05-27T14:44:38;22.70;31.60
10911;DHT22;5508;49.150;11.030;2023-05-27T14:47:39;22.80;30.80
10911;DHT22;5508;49.150;11.030;2023-05-27T14:50:39;22.90;28.80
10911;DHT22;5508;49.150;11.030;2023-05-27T14:53:40;22.90;28.50
10911;DHT22;5508;49.150;11.030;2023-05-27T14:56:41;22.70;28.10
10911;DHT22;5508;49.150;11.030;2023-05-27T14:59:41;22.70;29.50
10911;DHT22;5508;49.150;11.030;2023-05-27T15:02:42;23.00;28.40
10911;DHT22;5508;49.150;11.030;2023-05-27T15:05:43;22.90;25.80
10911;DHT22;5508;49.150;11.030;2023-05-27T15:08:43;22.90;24.80
10911;DHT22;5508;49.150;11.030;2023-05-27T15:11:44;22.90;24.40
10911;DHT22;5508;49.150;11.030;2023-05-27T15:14:44;22.80;27.70
10911;DHT22;5508;49.150;11.030;2023-05-27T15:17:45;22.70;27.50
10911;DHT22;5508;49.150;11.030;2023-05-27T15:20:46;22.40;30.70
10911;DHT22;5508;49.150;11.030;2023-05-27T15:23:47;22.40;50.70
10911;DHT22;5508;49.150;11.030;2023-05-27T15:26:47;22.40;35.70
10911;DHT22;5508;49.150;11.030;2023-05-27T15:29:48;22.20;30.30
10911;DHT22;5508;49.150;11.030;2023-05-27T15:32:48;22.10;28.40
10911;DHT22;5508;49.150;11.030;2023-05-27T15:35:49;22.10;27.90
10911;DHT22;5508;49.150;11.030;2023-05-27T15:38:50;22.20;32.80
10911;DHT22;5508;49.150;11.030;2023-05-27T15:41:50;22.10;28.70
10911;DHT22;5508;49.150;11.030;2023-05-27T15:44:51;22.10;34.20
10911;DHT22;5508;49.150;11.030;2023-05-27T15:47:51;22.10;32.40
10911;DHT22;5508;49.150;11.030;2023-05-27T15:50:54;22.10;30.70
10911;DHT22;5508;49.150;11.030;2023-05-27T15:53:55;21.90;26.80
10911;DHT22;5508;49.150;11.030;2023-05-27T15:56:55;21.80;28.40
10911;DHT22;5508;49.150;11.030;2023-05-27T15:59:56;21.80;23.60
10911;DHT22;5508;49.150;11.030;2023-05-27T16:02:58;21.80;25.80
10911;DHT22;5508;49.150;11.030;2023-05-27T16:05:58;21.80;24.30
10911;DHT22;5508;49.150;11.030;2023-05-27T16:08:59;21.80;23.30
10911;DHT22;5508;49.150;11.030;2023-05-27T16:12:00;21.70;23.10
10911;DHT22;5508;49.150;11.030;2023-05-27T16:15:03;21.60;23.70
10911;DHT22;5508;49.150;11.030;2023-05-27T16:18:04;21.60;24.60
10911;DHT22;5508;49.150;11.030;2023-05-27T16:21:04;21.70;24.60
10911;DHT22;5508;49.150;11.030;2023-05-27T16:24:05;21.70;24.70
10911;DHT22;5508;49.150;11.030;2023-05-27T16:27:06;21.80;25.50
10911;DHT22;5508;49.150;11.030;2023-05-27T16:30:07;21.80;24.90
10911;DHT22;5508;49.150;11.030;2023-05-27T16:33:08;21.70;23.70
10911;DHT22;5508;49.150;11.030;2023-05-27T16:36:09;21.60;24.20
10911;DHT22;5508;49.150;11.030;2023-05-27T16:39:09;21.40;24.40
10911;DHT22;5508;49.150;11.030;2023-05-27T16:42:10;21.40;25.50
10911;DHT22;5508;49.150;11.030;2023-05-27T16:45:11;21.30;25.70
10911;DHT22;5508;49.150;11.030;2023-05-27T16:48:11;21.20;24.30
10911;DHT22;5508;49.150;11.030;2023-05-27T16:51:12;21.10;24.50
10911;DHT22;5508;49.150;11.030;2023-05-27T16:54:12;21.10;23.40
10911;DHT22;5508;49.150;11.030;2023-05-27T16:57:13;20.90;28.20
10911;DHT22;5508;49.150;11.030;2023-05-27T17:00:14;20.80;25.40
10911;DHT22;5508;49.150;11.030;2023-05-27T17:03:15;20.70;25.60
10911;DHT22;5508;49.150;11.030;2023-05-27T17:06:15;20.70;25.40
10911;DHT22;5508;49.150;11.030;2023-05-27T17:09:17;20.70;26.60
10911;DHT22;5508;49.150;11.030;2023-05-27T17:12:17;20.70;24.60
10911;DHT22;5508;49.150;11.030;2023-05-27T17:15:18;20.70;23.40
10911;DHT22;5508;49.150;11.030;2023-05-27T17:18:19;20.70;24.90
10911;DHT22;5508;49.150;11.030;2023-05-27T17:21:19;20.50;26.70
10911;DHT22;5508;49.150;11.030;2023-05-27T17:24:20;20.50;26.00
10911;DHT22;5508;49.150;11.030;2023-05-27T17:27:21;20.40;27.10
10911;DHT22;5508;49.150;11.030;2023-05-27T17:30:21;20.20;26.00
10911;DHT22;5508;49.150;11.030;2023-05-27T17:33:22;20.20;25.10
10911;DHT22;5508;49.150;11.030;2023-05-27T17:36:22;20.10;24.80
10911;DHT22;5508;49.150;11.030;2023-05-27T17:39:23;20.10;25.50
10911;DHT22;5508;49.150;11.030;2023-05-27T17:42:24;19.90;26.10
10911;DHT22;5508;49.150;11.030;2023-05-27T17:45:24;19.90;26.20
10911;DHT22;5508;49.150;11.030;2023-05-27T17:48:25;19.70;30.00
10911;DHT22;5508;49.150;11.030;2023-05-27T17:51:26;19.70;25.90
10911;DHT22;5508;49.150;11.030;2023-05-27T17:54:28;19.60;26.30
10911;DHT22;5508;49.150;11.030;2023-05-27T17:57:28;19.50;26.60
10911;DHT22;5508;49.150;11.030;2023-05-27T18:00:29;19.40;27.60
10911;DHT22;5508;49.150;11.030;2023-05-27T18:03:29;19.30;28.50
10911;DHT22;5508;49.150;11.030;2023-05-27T18:06:33;19.20;27.80
10911;DHT22;5508;49.150;11.030;2023-05-27T18:09:34;19.10;28.90
10911;DHT22;5508;49.150;11.030;2023-05-27T18:12:34;19.10;28.90
10911;DHT22;5508;49.150;11.030;2023-05-27T18:15:35;19.00;28.50
10911;DHT22;5508;49.150;11.030;2023-05-27T18:18:35;18.90;28.80
10911;DHT22;5508;49.150;11.030;2023-05-27T18:21:36;18.70;29.40
10911;DHT22;5508;49.150;11.030;2023-05-27T18:24:37;18.70;29.10
10911;DHT22;5508;49.150;11.030;2023-05-27T18:27:37;18.60;29.20
10911;DHT22;5508;49.150;11.030;2023-05-27T18:30:39;18.50;32.10
10911;DHT22;5508;49.150;11.030;2023-05-27T18:33:40;18.30;32.70
10911;DHT22;5508;49.150;11.030;2023-05-27T18:36:41;18.10;32.10
10911;DHT22;5508;49.150;11.030;2023-05-27T18:39:42;18.10;30.80
10911;DHT22;5508;49.150;11.030;2023-05-27T18:42:44;17.90;33.00
10911;DHT22;5508;49.150;11.030;2023-05-27T18:45:53;17.60;33.30
10911;DHT22;5508;49.150;11.030;2023-05-27T18:48:57;17.50;34.20
10911;DHT22;5508;49.150;11.030;2023-05-27T18:51:58;17.30;35.70
10911;DHT22;5508;49.150;11.030;2023-05-27T18:54:58;17.10;35.30
10911;DHT22;5508;49.150;11.030;2023-05-27T18:57:59;16.90;38.10
10911;DHT22;5508;49.150;11.030;2023-05-27T19:01:01;16.70;37.60
10911;DHT22;5508;49.150;11.030;2023-05-27T19:04:01;16.50;37.20
10911;DHT22;5508;49.150;11.030;2023-05-27T19:07:02;16.30;38.00
10911;DHT22;5508;49.150;11.030;2023-05-27T19:10:03;16.10;38.90
10911;DHT22;5508;49.150;11.030;2023-05-27T19:13:04;15.90;39.30
10911;DHT22;5508;49.150;11.030;2023-05-27T19:16:05;15.80;39.40
10911;DHT22;5508;49.150;11.030;2023-05-27T19:19:05;15.60;42.10